createdAt,value
2019-05-10T00:01:58.111Z,10.88
2019-05-10T00:05:21.037Z,10.89
2019-05-10T00:08:43.648Z,10.95
2019-05-10T00:12:07.741Z,11.07
2019-05-10T00:15:14.400Z,10.94
2019-05-10T00:18:19.548Z,10.97
2019-05-10T00:21:25.810Z,10.86
2019-05-10T00:24:31.083Z,10.88
2019-05-10T00:27:36.189Z,10.72
2019-05-10T00:30:41.388Z,10.57
2019-05-10T00:33:47.588Z,10.49
2019-05-10T00:36:52.775Z,10.43
2019-05-10T00:39:57.937Z,10.55
2019-05-10T00:43:03.109Z,10.65
2019-05-10T00:46:08.260Z,10.65
2019-05-10T00:49:13.406Z,10.66
2019-05-10T00:52:18.561Z,10.58
2019-05-10T00:55:23.807Z,10.78
2019-05-10T00:58:28.926Z,10.71
2019-05-10T01:01:34.085Z,10.57
2019-05-10T01:04:39.668Z,10.49
2019-05-10T01:07:44.782Z,10.55
2019-05-10T01:10:49.934Z,10.46
2019-05-10T01:13:55.063Z,10.50
2019-05-10T01:17:00.215Z,10.44
2019-05-10T01:20:05.626Z,10.41
2019-05-10T01:23:10.821Z,10.29
2019-05-10T01:26:15.997Z,10.16
2019-05-10T01:29:21.098Z,9.93
2019-05-10T01:32:26.327Z,9.82
2019-05-10T01:35:31.470Z,9.73
2019-05-10T01:38:36.577Z,9.60
2019-05-10T01:41:41.792Z,9.63
2019-05-10T01:44:46.945Z,9.40
2019-05-10T01:47:52.125Z,9.18
2019-05-10T01:50:57.303Z,9.15
2019-05-10T01:54:02.489Z,9.28
2019-05-10T01:57:07.606Z,9.51
2019-05-10T02:00:14.666Z,9.94
2019-05-10T02:03:19.890Z,9.76
2019-05-10T02:06:24.987Z,9.69
2019-05-10T02:09:33.253Z,9.80
2019-05-10T02:12:37.089Z,9.72
2019-05-10T02:15:42.252Z,9.70
2019-05-10T02:18:47.400Z,9.56
2019-05-10T02:21:52.639Z,9.42
2019-05-10T02:24:57.778Z,9.53
2019-05-10T02:28:02.923Z,9.37
2019-05-10T02:31:08.111Z,9.48
2019-05-10T02:34:13.327Z,9.37
2019-05-10T02:37:18.541Z,9.27
2019-05-10T02:40:23.630Z,9.21
2019-05-10T02:43:28.791Z,9.12
2019-05-10T02:46:34.294Z,9.20
2019-05-10T02:49:39.413Z,9.38
2019-05-10T02:52:44.554Z,9.28
2019-05-10T02:55:50.473Z,8.93
2019-05-10T02:58:57.420Z,8.78
2019-05-10T03:02:05.530Z,8.65
2019-05-10T03:05:11.217Z,8.77
2019-05-10T03:08:16.765Z,8.68
2019-05-10T03:11:21.927Z,8.67
2019-05-10T03:14:30.015Z,8.65
2019-05-10T03:17:38.388Z,8.71
2019-05-10T03:20:45.135Z,8.54
2019-05-10T03:23:50.539Z,8.47
2019-05-10T03:26:55.731Z,8.42
2019-05-10T03:30:00.889Z,8.18
2019-05-10T03:33:06.101Z,8.17
2019-05-10T03:36:11.361Z,8.08
2019-05-10T03:39:16.609Z,7.99
2019-05-10T03:42:21.766Z,7.98
2019-05-10T03:45:27.952Z,7.81
2019-05-10T03:48:33.165Z,7.81
2019-05-10T03:51:38.302Z,7.71
2019-05-10T03:54:43.502Z,7.62
2019-05-10T03:57:48.667Z,7.66
2019-05-10T04:00:54.008Z,7.64
2019-05-10T04:03:59.197Z,7.47
2019-05-10T04:07:04.285Z,7.53
2019-05-10T04:10:09.850Z,7.47
2019-05-10T04:13:15.029Z,7.62
2019-05-10T04:16:20.142Z,7.59
2019-05-10T04:19:25.349Z,7.70
2019-05-10T04:22:31.548Z,8.12
2019-05-10T04:25:36.654Z,8.66
2019-05-10T04:28:41.792Z,9.74
2019-05-10T04:31:46.986Z,10.18
2019-05-10T04:34:52.136Z,10.40
2019-05-10T04:37:57.320Z,10.38
2019-05-10T04:41:02.415Z,10.04
2019-05-10T04:44:07.527Z,9.42
2019-05-10T04:47:12.654Z,9.38
2019-05-10T04:50:17.816Z,9.17
2019-05-10T04:53:22.981Z,9.07
2019-05-10T04:56:28.185Z,9.07
2019-05-10T04:59:33.388Z,9.96
2019-05-10T05:02:39.616Z,10.83
2019-05-10T05:05:44.821Z,11.32
2019-05-10T05:08:49.974Z,11.89
2019-05-10T05:11:55.153Z,12.97
2019-05-10T05:15:00.477Z,13.43
2019-05-10T05:18:05.635Z,13.46
2019-05-10T05:21:10.864Z,12.97
2019-05-10T05:24:17.091Z,13.01
2019-05-10T05:27:22.988Z,13.77
2019-05-10T05:30:28.079Z,13.87
2019-05-10T05:33:33.285Z,14.54
2019-05-10T05:36:38.398Z,14.39
2019-05-10T05:39:43.527Z,14.73
2019-05-10T05:42:48.658Z,13.59
2019-05-10T05:45:53.719Z,13.79
2019-05-10T05:48:58.926Z,14.15
2019-05-10T05:52:04.072Z,14.58
2019-05-10T05:55:09.471Z,14.55
2019-05-10T05:58:25.793Z,14.26
2019-05-10T06:01:26.109Z,14.16
2019-05-10T06:04:28.411Z,15.60
2019-05-10T06:07:37.939Z,14.99
2019-05-10T06:10:43.793Z,15.65
2019-05-10T06:13:48.264Z,14.98
2019-05-10T06:16:53.356Z,14.44
2019-05-10T06:20:00.827Z,14.34
2019-05-10T06:23:07.146Z,14.75
2019-05-10T06:26:21.046Z,15.11
2019-05-10T06:29:19.886Z,14.57
2019-05-10T06:32:25.464Z,14.69
2019-05-10T06:35:30.832Z,15.07
2019-05-10T06:38:36.109Z,14.70
2019-05-10T06:41:41.214Z,14.63
2019-05-10T06:44:46.456Z,14.58
2019-05-10T06:47:53.491Z,14.21
2019-05-10T06:51:02.753Z,14.41
2019-05-10T06:54:05.521Z,14.31
2019-05-10T06:57:11.166Z,14.21
2019-05-10T07:00:17.692Z,14.64
2019-05-10T07:03:23.767Z,14.46
2019-05-10T07:06:29.948Z,15.05
2019-05-10T07:10:00.599Z,14.63
2019-05-10T07:12:42.064Z,14.58
2019-05-10T07:15:47.280Z,15.03
2019-05-10T07:18:54.869Z,15.01
2019-05-10T07:21:59.290Z,14.87
2019-05-10T07:25:07.235Z,14.64
2019-05-10T07:28:15.883Z,15.08
2019-05-10T07:31:18.437Z,15.25
2019-05-10T07:34:23.637Z,14.46
2019-05-10T07:37:28.779Z,15.17
2019-05-10T07:40:33.920Z,15.25
2019-05-10T07:43:39.071Z,15.47
2019-05-10T07:46:46.432Z,14.77
2019-05-10T07:49:52.224Z,14.43
2019-05-10T07:52:57.379Z,14.78
2019-05-10T07:56:06.037Z,15.14
2019-05-10T07:59:09.347Z,15.95
2019-05-10T08:02:14.968Z,15.68
2019-05-10T08:05:20.205Z,15.62
2019-05-10T08:08:25.392Z,15.86
2019-05-10T08:11:30.543Z,15.77
2019-05-10T08:14:35.714Z,15.86
2019-05-10T08:17:45.332Z,16.54
2019-05-10T08:20:53.756Z,16.94
2019-05-10T08:23:59.096Z,16.72
2019-05-10T08:27:09.575Z,16.81
2019-05-10T08:30:24.296Z,15.93
2019-05-10T08:33:15.810Z,17.09
2019-05-10T08:36:21.891Z,16.84
2019-05-10T08:39:27.271Z,15.64
2019-05-10T08:42:43.848Z,15.78
2019-05-10T08:45:44.851Z,16.68
2019-05-10T08:48:51.306Z,17.40
2019-05-10T08:51:54.638Z,16.85
2019-05-10T08:55:02.499Z,16.37
2019-05-10T08:58:08.122Z,15.90
2019-05-10T09:01:25.827Z,16.16
2019-05-10T09:04:22.268Z,15.78
2019-05-10T09:07:29.421Z,15.90
2019-05-10T09:10:34.434Z,16.32
2019-05-10T09:13:42.621Z,16.70
2019-05-10T09:16:56.520Z,16.96
2019-05-10T09:19:53.328Z,17.20
2019-05-10T09:22:58.519Z,17.43
2019-05-10T09:26:10.574Z,16.53
2019-05-10T09:29:12.102Z,17.46
2019-05-10T09:32:23.361Z,17.07
2019-05-10T09:35:24.194Z,16.80
2019-05-10T09:38:34.875Z,16.71
2019-05-10T09:41:38.399Z,16.97
2019-05-10T09:44:45.596Z,16.33
2019-05-10T09:47:50.142Z,16.86
2019-05-10T09:50:57.172Z,16.71
2019-05-10T09:54:02.104Z,17.44
2019-05-10T09:57:08.197Z,17.28
2019-05-10T10:00:14.118Z,17.24
2019-05-10T10:03:19.289Z,16.69
2019-05-10T10:06:24.523Z,16.43
2019-05-10T10:09:34.698Z,16.91
2019-05-10T10:12:37.310Z,16.82
2019-05-10T10:15:42.548Z,17.04
2019-05-10T10:18:47.847Z,17.31
2019-05-10T10:21:53.011Z,17.84
2019-05-10T10:25:00.645Z,17.42
2019-05-10T10:28:08.352Z,17.68
2019-05-10T10:31:26.263Z,17.73
2019-05-10T10:34:18.921Z,18.26
2019-05-10T10:37:28.386Z,18.53
2019-05-10T10:40:35.398Z,18.05
2019-05-10T10:43:37.903Z,18.06
2019-05-10T10:46:43.030Z,18.15
2019-05-10T10:49:48.244Z,18.39
2019-05-10T10:52:53.388Z,18.28
2019-05-10T10:56:03.521Z,17.84
2019-05-10T10:59:07.523Z,17.23
2019-05-10T11:02:33.080Z,17.68
2019-05-10T11:05:19.122Z,18.10
2019-05-10T11:08:24.359Z,18.50
2019-05-10T11:11:38.445Z,18.58
2019-05-10T11:14:40.062Z,18.04
2019-05-10T11:17:43.405Z,17.50
2019-05-10T11:20:49.800Z,18.09
2019-05-10T11:23:55.414Z,18.19
2019-05-10T11:27:01.132Z,18.30
2019-05-10T11:30:07.290Z,18.60
2019-05-10T11:33:25.826Z,18.60
2019-05-10T11:36:21.122Z,18.34
2019-05-10T11:39:26.989Z,17.88
2019-05-10T11:42:32.228Z,18.17
2019-05-10T11:45:37.418Z,18.09
2019-05-10T11:48:44.053Z,17.81
2019-05-10T11:51:54.757Z,17.63
2019-05-10T11:54:56.111Z,17.99
2019-05-10T12:01:14.755Z,18.23
2019-05-10T12:07:27.468Z,18.35
2019-05-10T12:10:28.765Z,17.79
2019-05-10T12:13:33.957Z,18.25
2019-05-10T12:16:42.085Z,18.29
2019-05-10T12:19:50.585Z,18.90
2019-05-10T12:22:52.883Z,18.52
2019-05-10T12:26:26.526Z,17.91
2019-05-10T12:26:30.935Z,18.25
2019-05-10T12:27:13.848Z,18.24
2019-05-10T12:29:11.962Z,18.95
2019-05-10T12:32:12.135Z,19.27
2019-05-10T12:35:17.340Z,18.86
2019-05-10T12:38:29.112Z,18.65
2019-05-10T12:41:31.648Z,18.50
2019-05-10T12:44:38.885Z,18.29
2019-05-10T12:47:43.395Z,18.60
2019-05-10T12:50:52.263Z,18.13
2019-05-10T12:53:56.571Z,18.34
2019-05-10T12:57:01.728Z,18.33
2019-05-10T13:00:13.067Z,18.31
2019-05-10T13:03:18.859Z,18.51
2019-05-10T13:06:22.019Z,18.67
2019-05-10T13:09:38.596Z,18.70
2019-05-10T13:12:36.917Z,19.25
2019-05-10T13:15:41.034Z,19.63
2019-05-10T13:18:52.301Z,18.99
2019-05-10T13:21:58.725Z,19.01
2019-05-10T13:25:01.077Z,18.81
2019-05-10T13:28:11.047Z,19.17
2019-05-10T13:31:15.237Z,18.80
2019-05-10T13:34:19.957Z,19.15
2019-05-10T13:37:25.402Z,19.44
2019-05-10T13:40:30.661Z,20.06
2019-05-10T13:43:35.793Z,19.79
2019-05-10T13:46:40.957Z,19.16
2019-05-10T13:49:48.671Z,19.51
2019-05-10T13:52:53.047Z,19.91
2019-05-10T13:55:58.170Z,20.36
2019-05-10T13:59:13.674Z,20.07
2019-05-10T14:02:10.217Z,20.32
2019-05-10T14:05:17.599Z,19.76
2019-05-10T14:08:22.214Z,19.58
2019-05-10T14:11:27.495Z,19.21
2019-05-10T14:14:32.644Z,19.27
2019-05-10T14:17:37.806Z,19.48
2019-05-10T14:20:43.021Z,19.32
2019-05-10T14:23:48.177Z,19.74
2019-05-10T14:26:57.089Z,19.67
2019-05-10T14:30:00.250Z,19.29
2019-05-10T14:33:08.675Z,18.92
2019-05-10T14:36:12.185Z,19.18
2019-05-10T14:39:17.365Z,19.32
2019-05-10T14:42:30.437Z,20.01
2019-05-10T14:45:29.343Z,19.90
2019-05-10T14:48:35.543Z,19.73
2019-05-10T14:51:57.737Z,19.16
2019-05-10T14:54:49.855Z,19.58
2019-05-10T14:57:54.828Z,19.82
2019-05-10T15:01:00.046Z,19.88
2019-05-10T15:04:05.160Z,19.83
2019-05-10T15:07:14.321Z,19.29
2019-05-10T15:10:17.279Z,19.08
2019-05-10T15:13:26.105Z,19.05
2019-05-10T15:16:30.791Z,19.29
2019-05-10T15:19:36.323Z,19.22
2019-05-10T15:22:41.502Z,19.25
2019-05-10T15:25:56.729Z,19.25
2019-05-10T15:28:53.456Z,18.75
2019-05-10T15:31:58.664Z,19.18
2019-05-10T15:35:07.226Z,19.23
2019-05-10T15:38:10.671Z,20.07
2019-05-10T15:41:16.902Z,19.16
2019-05-10T15:44:30.438Z,19.42
2019-05-10T15:47:29.739Z,19.19
2019-05-10T15:50:38.691Z,18.94
2019-05-10T15:53:41.868Z,19.15
2019-05-10T15:56:47.044Z,18.87
2019-05-10T15:59:56.798Z,18.92
2019-05-10T16:02:58.991Z,18.82
2019-05-10T16:06:04.171Z,18.83
2019-05-10T16:09:18.913Z,18.61
2019-05-10T16:12:28.883Z,18.50
2019-05-10T16:15:35.255Z,18.60
2019-05-10T16:18:43.423Z,18.34
2019-05-10T16:21:52.260Z,18.03
2019-05-10T16:25:02.445Z,18.06
2019-05-10T16:28:08.076Z,17.89
2019-05-10T16:31:14.114Z,18.22
2019-05-10T16:34:20.094Z,18.38
2019-05-10T16:37:26.571Z,18.34
2019-05-10T16:40:35.893Z,18.61
2019-05-10T16:43:41.221Z,18.45
2019-05-10T16:46:47.496Z,18.54
2019-05-10T16:49:53.402Z,18.61
2019-05-10T16:53:05.495Z,18.42
2019-05-10T16:56:06.539Z,18.06
2019-05-10T16:59:11.728Z,17.87
2019-05-10T17:02:17.019Z,18.22
2019-05-10T17:05:22.305Z,18.22
2019-05-10T17:08:30.773Z,18.34
2019-05-10T17:11:34.372Z,18.11
2019-05-10T17:14:39.547Z,18.28
2019-05-10T17:17:45.158Z,18.38
2019-05-10T17:20:52.537Z,18.06
2019-05-10T17:23:58.890Z,17.98
2019-05-10T17:27:04.204Z,17.87
2019-05-10T17:30:09.745Z,17.83
2019-05-10T17:33:14.911Z,17.61
2019-05-10T17:36:21.506Z,17.01
2019-05-10T17:39:32.401Z,17.01
2019-05-10T17:42:35.654Z,17.27
2019-05-10T17:45:42.391Z,17.00
2019-05-10T17:48:49.528Z,16.73
2019-05-10T17:51:54.909Z,16.51
2019-05-10T17:55:00.128Z,16.15
2019-05-10T17:58:05.354Z,15.76
2019-05-10T18:01:10.697Z,15.55
2019-05-10T18:04:15.915Z,15.20
2019-05-10T18:07:21.133Z,15.05
2019-05-10T18:10:26.353Z,14.99
2019-05-10T18:13:35.468Z,14.89
2019-05-10T18:16:41.894Z,14.75
2019-05-10T18:19:45.264Z,14.61
2019-05-10T18:22:50.488Z,14.52
2019-05-10T18:25:58.651Z,14.47
2019-05-10T18:29:02.694Z,14.30
2019-05-10T18:32:10.992Z,14.24
2019-05-10T18:35:16.918Z,14.05
2019-05-10T18:38:21.657Z,14.05
2019-05-10T18:41:26.827Z,14.05
2019-05-10T18:44:32.047Z,13.89
2019-05-10T18:47:37.240Z,13.75
2019-05-10T18:50:45.562Z,13.53
2019-05-10T18:53:49.276Z,13.37
2019-05-10T18:56:54.613Z,13.40
2019-05-10T18:59:59.898Z,13.17
2019-05-10T19:03:05.227Z,13.05
2019-05-10T19:06:11.323Z,13.21
2019-05-10T19:09:17.697Z,13.30
2019-05-10T19:12:23.750Z,13.06
2019-05-10T19:15:29.377Z,13.02
2019-05-10T19:18:34.602Z,13.00
2019-05-10T19:21:39.833Z,12.88
2019-05-10T19:24:45.019Z,12.75
2019-05-10T19:27:51.005Z,12.99
2019-05-10T19:30:58.562Z,12.97
2019-05-10T19:34:08.993Z,12.60
2019-05-10T19:37:11.305Z,12.42
2019-05-10T19:40:18.832Z,12.25
2019-05-10T19:43:24.141Z,12.21
2019-05-10T19:46:30.023Z,12.15
2019-05-10T19:49:36.215Z,12.06
2019-05-10T19:52:41.461Z,12.04
2019-05-10T19:55:51.325Z,11.98
2019-05-10T19:58:53.631Z,12.11
2019-05-10T20:01:58.899Z,12.08
2019-05-10T20:05:04.470Z,12.08
2019-05-10T20:08:09.622Z,11.92
2019-05-10T20:11:14.816Z,11.79
2019-05-10T20:14:19.995Z,11.69
2019-05-10T20:17:25.292Z,11.51
2019-05-10T20:20:30.462Z,11.38
2019-05-10T20:23:35.643Z,11.27
2019-05-10T20:26:40.858Z,11.21
2019-05-10T20:29:47.103Z,11.23
2019-05-10T20:32:52.346Z,11.29
2019-05-10T20:35:57.530Z,11.34
2019-05-10T20:39:02.750Z,11.43
2019-05-10T20:42:07.996Z,11.51
2019-05-10T20:45:13.764Z,11.72
2019-05-10T20:48:19.280Z,11.59
2019-05-10T20:51:24.409Z,11.66
2019-05-10T20:54:29.647Z,11.56
2019-05-10T20:57:34.828Z,11.47
2019-05-10T21:00:40.018Z,11.45
2019-05-10T21:03:45.214Z,11.42
2019-05-10T21:06:50.429Z,11.42
2019-05-10T21:09:55.539Z,11.48
2019-05-10T21:13:00.769Z,11.43
2019-05-10T21:16:05.945Z,11.39
2019-05-10T21:19:11.107Z,11.37
2019-05-10T21:22:16.256Z,11.35
2019-05-10T21:25:21.412Z,11.36
2019-05-10T21:28:26.510Z,11.37
2019-05-10T21:31:31.679Z,11.30
2019-05-10T21:34:36.920Z,11.28
2019-05-10T21:37:42.173Z,11.38
2019-05-10T21:40:47.404Z,11.38
2019-05-10T21:43:52.631Z,11.35
2019-05-10T21:46:57.735Z,11.36
2019-05-10T21:50:02.901Z,11.30
2019-05-10T21:53:08.109Z,11.24
2019-05-10T21:56:13.287Z,11.21
2019-05-10T21:59:18.431Z,11.22
2019-05-10T22:02:23.571Z,11.32
2019-05-10T22:05:28.738Z,11.24
2019-05-10T22:08:48.428Z,11.21
2019-05-10T22:11:40.959Z,11.25
2019-05-10T22:14:46.191Z,11.25
2019-05-10T22:17:51.401Z,11.22
2019-05-10T22:20:56.653Z,11.20
2019-05-10T22:24:01.865Z,11.15
2019-05-10T22:27:07.168Z,11.23
2019-05-10T22:30:12.784Z,11.36
2019-05-10T22:33:18.141Z,11.28
2019-05-10T22:36:23.291Z,11.19
2019-05-10T22:39:28.542Z,11.04
2019-05-10T22:42:33.748Z,10.93
2019-05-10T22:45:38.889Z,10.85
2019-05-10T22:48:44.107Z,10.85
2019-05-10T22:51:49.281Z,10.76
2019-05-10T22:54:54.467Z,10.68
2019-05-10T22:57:59.679Z,10.71
2019-05-10T23:01:04.867Z,10.80
2019-05-10T23:04:10.108Z,10.68
2019-05-10T23:07:16.581Z,10.64
2019-05-10T23:10:21.793Z,10.66
2019-05-10T23:13:26.971Z,10.64
2019-05-10T23:16:32.236Z,10.63
2019-05-10T23:19:37.389Z,10.80
2019-05-10T23:22:42.600Z,10.80
2019-05-10T23:25:47.791Z,10.79
2019-05-10T23:28:52.924Z,10.79
2019-05-10T23:31:58.104Z,10.79
2019-05-10T23:35:03.875Z,10.80
2019-05-10T23:38:09.031Z,10.76
2019-05-10T23:41:14.120Z,10.72
2019-05-10T23:44:19.293Z,10.72
2019-05-10T23:47:24.481Z,10.66
2019-05-10T23:50:29.777Z,10.66
2019-05-10T23:53:34.951Z,10.74
2019-05-10T23:56:40.111Z,10.79
2019-05-10T23:59:45.254Z,10.79
